Time;durP1;ratioP1;P1;durP2;ratioP2;P2;SDS_P1;SDS_P2;PMS_P1;PMS_P2;Temp;Humidity;BMP_temperature;BMP_pressure;BME280_temperature;BME280_humidity;BME280_pressure;Samples;Min_cycle;Max_cycle;Signal;HPM_P1;HPM_P2
2021/10/20 00:00:53;;;;;;;;;;;;;;;9.25;87.90;96832.28;5074444;28;19989;-77
2021/10/20 00:03:19;;;;;;;;;;;;;;;9.25;87.81;96822.63;5074490;28;19964;-77
2021/10/20 00:05:45;;;;;;;;;;;;;;;9.23;87.72;96824.63;5074564;28;20298;-76
2021/10/20 00:08:11;;;;;;;;;;;;;;;9.22;87.47;96816.97;5075139;28;19962;-76
2021/10/20 00:10:37;;;;;;;;;;;;;;;9.21;87.54;96818.00;5074568;28;19963;-76
2021/10/20 00:13:03;;;;;;;;;;;;;;;9.20;87.53;96826.84;5074523;28;19955;-77
2021/10/20 00:15:29;;;;;;;;;;;;;;;9.18;87.26;96821.81;5074769;28;19963;-77
2021/10/20 00:17:55;;;;;;;;;;;;;;;9.16;87.13;96815.97;5074312;28;19984;-76
2021/10/20 00:20:24;;;;;;;;;;;;;;;9.13;87.16;96814.56;5075052;28;20343;-76
2021/10/20 00:22:50;;;;;;;;;;;;;;;9.09;87.01;96808.13;5074348;28;19964;-76
2021/10/20 00:25:17;;;;;;;;;;;;;;;9.06;87.05;96803.28;5074633;28;19963;-76
2021/10/20 00:27:43;;;;;;;;;;;;;;;9.02;86.99;96796.84;5074271;28;20326;-77
2021/10/20 00:30:09;;;;;;;;;;;;;;;9.00;87.08;96804.06;5074355;28;19959;-77
2021/10/20 00:32:36;;;;;;;;;;;;;;;8.98;87.29;96792.19;5074425;28;20359;-77
2021/10/20 00:35:02;;;;;;;;;;;;;;;8.96;87.30;96796.81;5074010;28;19960;-77
2021/10/20 00:37:28;;;;;;;;;;;;;;;8.95;87.40;96798.66;5074108;28;19970;-77
2021/10/20 00:39:54;;;;;;;;;;;;;;;8.91;87.29;96782.53;5074183;28;20338;-76
2021/10/20 00:42:22;;;;;;;;;;;;;;;8.90;87.36;96793.19;5074074;28;19959;-77
2021/10/20 00:44:59;;;;;;;;;;;;;;;8.88;87.30;96792.56;5061206;28;19990;-77
2021/10/20 00:47:25;;;;;;;;;;;;;;;8.85;87.32;96785.94;5074054;28;19966;-77
2021/10/20 00:49:52;;;;;;;;;;;;;;;8.82;87.15;96778.50;5074445;28;19960;-77
2021/10/20 00:52:19;;;;;;;;;;;;;;;8.80;87.15;96784.91;5073803;28;20321;-76
2021/10/20 00:54:45;;;;;;;;;;;;;;;8.77;87.53;96774.84;5073960;28;19966;-77
2021/10/20 00:57:11;;;;;;;;;;;;;;;8.77;87.63;96772.25;5073611;28;20026;-77
2021/10/20 00:59:38;;;;;;;;;;;;;;;8.75;87.68;96772.44;5073816;28;19962;-76
2021/10/20 01:02:04;;;;;;;;;;;;;;;8.73;87.87;96770.03;5073655;28;19957;-77
2021/10/20 01:04:31;;;;;;;;;;;;;;;8.72;87.93;96765.00;5074013;28;19964;-77
2021/10/20 01:06:56;;;;;;;;;;;;;;;8.73;88.09;96766.59;5073752;28;19968;-77
2021/10/20 01:09:23;;;;;;;;;;;;;;;8.74;87.88;96755.16;5073620;28;19954;-77
2021/10/20 01:11:49;;;;;;;;;;;;;;;8.72;88.05;96765.00;5072561;28;19957;-77
2021/10/20 01:14:15;;;;;;;;;;;;;;;8.69;88.05;96762.75;5072605;28;19965;-77
2021/10/20 01:16:41;;;;;;;;;;;;;;;8.65;87.93;96751.09;5073724;28;19959;-76
2021/10/20 01:19:08;;;;;;;;;;;;;;;8.66;88.36;96752.72;5073615;28;20358;-77
2021/10/20 01:21:35;;;;;;;;;;;;;;;8.68;88.41;96748.09;5073565;28;19955;-76
2021/10/20 01:24:01;;;;;;;;;;;;;;;8.69;88.18;96740.06;5073487;28;19978;-77
2021/10/20 01:26:27;;;;;;;;;;;;;;;8.71;88.22;96732.00;5073644;28;20541;-77
2021/10/20 01:28:53;;;;;;;;;;;;;;;8.70;88.24;96725.16;5073376;28;19956;-77
2021/10/20 01:31:20;;;;;;;;;;;;;;;8.70;88.19;96727.78;5073782;28;19955;-76
2021/10/20 01:33:46;;;;;;;;;;;;;;;8.69;88.11;96721.75;5073335;28;19951;-77
2021/10/20 01:36:11;;;;;;;;;;;;;;;8.66;88.03;96716.91;5073516;28;19955;-77
2021/10/20 01:38:37;;;;;;;;;;;;;;;8.65;88.02;96717.94;5072104;28;20338;-77
2021/10/20 01:41:03;;;;;;;;;;;;;;;8.64;87.69;96711.06;5073508;28;19956;-77
2021/10/20 01:43:38;;;;;;;;;;;;;;;8.61;87.67;96702.81;5073268;28;19965;-76
2021/10/20 01:46:04;;;;;;;;;;;;;;;8.60;88.04;96701.22;5073476;28;19958;-76
2021/10/20 01:48:30;;;;;;;;;;;;;;;8.60;88.07;96699.41;5073231;28;20097;-76
2021/10/20 01:50:56;;;;;;;;;;;;;;;8.60;88.28;96696.78;5073219;28;20007;-77
2021/10/20 01:53:22;;;;;;;;;;;;;;;8.60;88.27;96688.94;5073337;28;19985;-77
2021/10/20 01:55:48;;;;;;;;;;;;;;;8.61;88.03;96685.34;5073249;28;20523;-76
2021/10/20 01:58:14;;;;;;;;;;;;;;;8.60;88.18;96683.72;5072991;28;19969;-76
2021/10/20 02:00:39;;;;;;;;;;;;;;;8.60;87.99;96686.34;5073244;28;19995;-76
2021/10/20 02:03:05;;;;;;;;;;;;;;;8.60;88.02;96681.09;5073088;28;19995;-76
2021/10/20 02:05:31;;;;;;;;;;;;;;;8.59;87.91;96676.91;5073256;28;20368;-76
2021/10/20 02:07:57;;;;;;;;;;;;;;;8.59;87.45;96665.59;5073046;28;19959;-76
2021/10/20 02:10:23;;;;;;;;;;;;;;;8.57;87.48;96667.63;5073103;28;19962;-76
2021/10/20 02:12:49;;;;;;;;;;;;;;;8.53;87.71;96673.25;5073034;28;20371;-76
2021/10/20 02:15:15;;;;;;;;;;;;;;;8.51;87.65;96664.00;5072906;28;19951;-76
2021/10/20 02:17:41;;;;;;;;;;;;;;;8.50;87.80;96662.38;5072919;28;20072;-76
2021/10/20 02:20:08;;;;;;;;;;;;;;;8.45;87.83;96660.38;5073386;28;20082;-76
2021/10/20 02:22:35;;;;;;;;;;;;;;;8.44;87.69;96660.56;5073164;28;20322;-76
2021/10/20 02:25:02;;;;;;;;;;;;;;;8.41;87.75;96653.94;5073261;28;19955;-76
2021/10/20 02:27:27;;;;;;;;;;;;;;;8.39;87.60;96650.69;5077245;28;19961;-76
2021/10/20 02:29:53;;;;;;;;;;;;;;;8.36;87.59;96651.09;5075338;28;20007;-76
2021/10/20 02:32:19;;;;;;;;;;;;;;;8.32;87.51;96648.06;5075533;28;19989;-77
2021/10/20 02:34:47;;;;;;;;;;;;;;;8.32;87.45;96642.03;5076580;28;19951;-77
2021/10/20 02:37:13;;;;;;;;;;;;;;;8.31;87.47;96632.56;5076508;28;19982;-76
2021/10/20 02:39:39;;;;;;;;;;;;;;;8.29;87.51;96638.03;5076168;28;19965;-76
2021/10/20 02:42:05;;;;;;;;;;;;;;;8.27;87.50;96633.97;5076711;28;19995;-77
2021/10/20 02:44:31;;;;;;;;;;;;;;;8.26;87.79;96627.16;5076332;28;20471;-76
2021/10/20 02:46:57;;;;;;;;;;;;;;;8.26;87.70;96637.59;5076239;28;20403;-76
2021/10/20 02:49:23;;;;;;;;;;;;;;;8.23;87.62;96630.97;5076308;28;19960;-77
2021/10/20 02:51:49;;;;;;;;;;;;;;;8.23;87.66;96632.75;5076345;28;20318;-76
2021/10/20 02:54:15;;;;;;;;;;;;;;;8.22;87.80;96634.56;5076495;28;19992;-76
2021/10/20 02:56:41;;;;;;;;;;;;;;;8.21;88.03;96626.94;5076406;28;19956;-76
2021/10/20 02:59:07;;;;;;;;;;;;;;;8.21;87.98;96634.75;5076272;28;19980;-76
2021/10/20 03:01:33;;;;;;;;;;;;;;;8.21;87.72;96627.75;5075965;28;19958;-76
2021/10/20 03:03:59;;;;;;;;;;;;;;;8.21;87.98;96627.75;5076253;28;19984;-76
2021/10/20 03:06:25;;;;;;;;;;;;;;;8.20;88.07;96627.94;5075675;28;20317;-77
2021/10/20 03:08:51;;;;;;;;;;;;;;;8.17;88.19;96621.31;5076159;28;20003;-76
2021/10/20 03:11:17;;;;;;;;;;;;;;;8.17;88.30;96615.25;5075721;28;19951;-76
2021/10/20 03:13:43;;;;;;;;;;;;;;;8.12;88.33;96616.66;5075768;28;19948;-76
2021/10/20 03:16:08;;;;;;;;;;;;;;;8.08;88.48;96614.66;5075780;28;19955;-76
2021/10/20 03:18:34;;;;;;;;;;;;;;;8.04;88.60;96611.66;5075826;28;20021;-77
2021/10/20 03:21:01;;;;;;;;;;;;;;;8.04;89.19;96609.03;5076132;28;19956;-76
2021/10/20 03:23:27;;;;;;;;;;;;;;;8.02;88.99;96599.75;5075514;28;19951;-76
2021/10/20 03:25:52;;;;;;;;;;;;;;;7.98;88.67;96593.31;5075608;28;20050;-77
2021/10/20 03:28:18;;;;;;;;;;;;;;;7.95;89.02;96599.75;5075539;28;20444;-76
2021/10/20 03:30:44;;;;;;;;;;;;;;;7.96;89.40;96593.53;5075813;28;19985;-77
2021/10/20 03:33:10;;;;;;;;;;;;;;;7.98;88.88;96588.09;5075619;28;19955;-76
2021/10/20 03:35:36;;;;;;;;;;;;;;;8.05;89.01;96594.97;5074790;28;19960;-77
2021/10/20 03:38:03;;;;;;;;;;;;;;;8.09;89.11;96582.31;5075597;28;20052;-76
2021/10/20 03:40:28;;;;;;;;;;;;;;;8.08;89.03;96573.69;5075426;28;19956;-76
2021/10/20 03:42:54;;;;;;;;;;;;;;;8.06;88.81;96580.09;5075389;28;20314;-76
2021/10/20 03:45:20;;;;;;;;;;;;;;;8.06;88.82;96587.91;5075147;28;19955;-76
2021/10/20 03:47:46;;;;;;;;;;;;;;;8.06;88.82;96580.09;5075392;28;20065;-76
2021/10/20 03:50:12;;;;;;;;;;;;;;;8.06;88.75;96572.25;5075148;28;19958;-77
2021/10/20 03:52:38;;;;;;;;;;;;;;;8.06;88.30;96575.69;5075404;28;20355;-76
2021/10/20 03:55:05;;;;;;;;;;;;;;;8.08;88.59;96572.84;5075003;28;20429;-76
2021/10/20 03:57:34;;;;;;;;;;;;;;;8.05;88.36;96568.84;5074866;28;19951;-76
2021/10/20 04:00:00;;;;;;;;;;;;;;;8.07;88.67;96572.06;5075095;28;19958;-76
2021/10/20 04:02:26;;;;;;;;;;;;;;;8.09;88.80;96562.22;5074839;28;19960;-77
2021/10/20 04:04:52;;;;;;;;;;;;;;;8.10;88.58;96558.59;5073482;28;19981;-77
2021/10/20 04:07:18;;;;;;;;;;;;;;;8.12;88.51;96556.56;5074642;28;19963;-76
2021/10/20 04:09:44;;;;;;;;;;;;;;;8.11;88.31;96556.81;5075160;28;20067;-76
2021/10/20 04:12:10;;;;;;;;;;;;;;;8.08;88.02;96544.94;5074681;28;19962;-76
2021/10/20 04:14:36;;;;;;;;;;;;;;;8.06;87.87;96560.03;5074420;28;20404;-77
2021/10/20 04:17:03;;;;;;;;;;;;;;;8.03;88.08;96564.81;5074703;28;19999;-76
2021/10/20 04:19:29;;;;;;;;;;;;;;;8.03;88.10;96557.78;5074209;28;19980;-76
2021/10/20 04:21:55;;;;;;;;;;;;;;;8.00;88.08;96558.19;5074512;28;19969;-76
2021/10/20 04:24:20;;;;;;;;;;;;;;;8.01;88.17;96562.41;5074397;28;20492;-76
2021/10/20 04:26:46;;;;;;;;;;;;;;;8.01;88.18;96553.78;5074110;28;20004;-76
2021/10/20 04:29:12;;;;;;;;;;;;;;;8.01;88.09;96551.94;5074398;28;20046;-76
2021/10/20 04:31:38;;;;;;;;;;;;;;;8.00;88.14;96552.97;5074243;28;20002;-76
2021/10/20 04:34:04;;;;;;;;;;;;;;;7.99;88.10;96553.16;5072910;28;19957;-76
2021/10/20 04:36:30;;;;;;;;;;;;;;;7.99;88.14;96558.38;5074019;28;19962;-76
2021/10/20 04:38:56;;;;;;;;;;;;;;;7.97;88.27;96552.56;5073277;28;20021;-76
2021/10/20 04:41:23;;;;;;;;;;;;;;;7.95;88.16;96560.59;5073963;28;19985;-77
2021/10/20 04:43:50;;;;;;;;;;;;;;;7.93;88.43;96558.16;5074082;28;19954;-76
2021/10/20 04:46:16;;;;;;;;;;;;;;;7.90;88.44;96558.56;5073832;28;19952;-76
2021/10/20 04:48:42;;;;;;;;;;;;;;;7.89;88.66;96548.31;5073050;28;19964;-76
2021/10/20 04:51:08;;;;;;;;;;;;;;;7.87;88.68;96540.69;5073714;28;20415;-76
2021/10/20 04:53:34;;;;;;;;;;;;;;;7.87;88.94;96537.25;5074217;28;19973;-76
2021/10/20 04:56:00;;;;;;;;;;;;;;;7.84;88.79;96553.34;5073884;28;20009;-76
2021/10/20 04:58:26;;;;;;;;;;;;;;;7.84;89.08;96548.91;5073744;28;20028;-76
2021/10/20 05:00:52;;;;;;;;;;;;;;;7.86;89.20;96546.13;5073744;28;19953;-76
2021/10/20 05:03:18;;;;;;;;;;;;;;;7.86;89.18;96541.69;5073757;28;19954;-76
2021/10/20 05:05:44;;;;;;;;;;;;;;;7.86;88.77;96533.84;5073850;28;19958;-76
2021/10/20 05:08:10;;;;;;;;;;;;;;;7.84;88.92;96525.41;5074035;28;19968;-76
2021/10/20 05:10:37;;;;;;;;;;;;;;;7.83;88.83;96523.00;5073609;28;19959;-76
2021/10/20 05:13:03;;;;;;;;;;;;;;;7.84;89.01;96520.19;5073698;28;19965;-76
2021/10/20 05:15:29;;;;;;;;;;;;;;;7.84;89.14;96512.34;5073550;28;20326;-76
2021/10/20 05:17:55;;;;;;;;;;;;;;;7.85;88.63;96513.97;5074100;28;20319;-76
2021/10/20 05:20:21;;;;;;;;;;;;;;;7.87;88.78;96517.19;5073361;28;19978;-76
2021/10/20 05:22:48;;;;;;;;;;;;;;;7.90;88.90;96513.38;5073588;28;20465;-76
2021/10/20 05:25:15;;;;;;;;;;;;;;;7.91;88.87;96523.59;5073754;28;19955;-76
2021/10/20 05:27:41;;;;;;;;;;;;;;;7.91;88.69;96517.59;5073561;28;19952;-76
2021/10/20 05:30:08;;;;;;;;;;;;;;;7.91;88.60;96517.59;5073315;28;20411;-76
2021/10/20 05:32:34;;;;;;;;;;;;;;;7.90;88.67;96511.56;5073969;28;19954;-76
2021/10/20 05:35:00;;;;;;;;;;;;;;;7.90;88.46;96502.94;5073361;28;20002;-76
2021/10/20 05:37:26;;;;;;;;;;;;;;;7.91;88.60;96507.16;5073484;28;19960;-77
2021/10/20 05:39:53;;;;;;;;;;;;;;;7.90;88.53;96506.34;5073455;28;20018;-76
2021/10/20 05:42:19;;;;;;;;;;;;;;;7.91;88.05;96504.53;5073634;28;19952;-76
2021/10/20 05:44:46;;;;;;;;;;;;;;;7.99;87.99;96500.94;5073182;28;19961;-76
2021/10/20 05:47:12;;;;;;;;;;;;;;;8.04;88.25;96504.56;5073265;28;19960;-76
2021/10/20 05:49:38;;;;;;;;;;;;;;;8.06;88.23;96499.94;5073035;28;20334;-76
2021/10/20 05:52:04;;;;;;;;;;;;;;;8.05;87.86;96498.31;5073045;28;20044;-76
2021/10/20 05:54:30;;;;;;;;;;;;;;;8.05;88.32;96497.53;5073514;28;20479;-76
2021/10/20 05:56:56;;;;;;;;;;;;;;;8.05;87.86;96492.31;5073247;28;19959;-76
2021/10/20 05:59:23;;;;;;;;;;;;;;;8.06;88.44;96494.72;5073604;28;20015;-76
2021/10/20 06:01:50;;;;;;;;;;;;;;;8.06;87.99;96494.72;5076983;28;19964;-76
2021/10/20 06:04:16;;;;;;;;;;;;;;;8.06;88.00;96497.34;5077047;28;19958;-76
2021/10/20 06:06:43;;;;;;;;;;;;;;;8.06;87.27;96484.28;5077006;28;19971;-76
2021/10/20 06:09:09;;;;;;;;;;;;;;;8.06;87.94;96494.72;5076982;28;19958;-76
2021/10/20 06:11:35;;;;;;;;;;;;;;;8.05;87.64;96489.69;5077005;28;19973;-76
2021/10/20 06:14:01;;;;;;;;;;;;;;;8.05;88.23;96497.53;5076711;28;20414;-76
2021/10/20 06:16:27;;;;;;;;;;;;;;;8.05;87.93;96489.69;5076647;28;19959;-76
2021/10/20 06:18:53;;;;;;;;;;;;;;;8.05;88.21;96482.66;5076903;28;19968;-76
2021/10/20 06:21:19;;;;;;;;;;;;;;;8.13;88.29;96487.69;5076542;28;19952;-76
2021/10/20 06:23:45;;;;;;;;;;;;;;;8.36;87.55;96481.25;5076639;28;19951;-76
2021/10/20 06:26:10;;;;;;;;;;;;;;;8.52;86.79;96486.09;5076425;28;20005;-76
2021/10/20 06:28:36;;;;;;;;;;;;;;;8.57;86.26;96490.69;5076870;28;19961;-76
2021/10/20 06:31:02;;;;;;;;;;;;;;;8.61;86.25;96496.28;5076544;28;19952;-76
2021/10/20 06:33:28;;;;;;;;;;;;;;;8.66;86.12;96483.44;5076813;28;20010;-76
2021/10/20 06:35:58;;;;;;;;;;;;;;;8.70;86.82;96495.09;5076778;28;20381;-76
2021/10/20 06:38:24;;;;;;;;;;;;;;;8.74;86.39;96494.47;5075548;28;19964;-76
2021/10/20 06:40:50;;;;;;;;;;;;;;;8.81;86.40;96494.44;5062905;28;20049;-76
2021/10/20 06:43:16;;;;;;;;;;;;;;;8.89;86.46;96488.22;5076731;28;20434;-76
2021/10/20 06:45:42;;;;;;;;;;;;;;;8.99;86.59;96485.97;5076438;28;19971;-76
2021/10/20 06:48:08;;;;;;;;;;;;;;;9.18;83.15;96484.28;5076398;28;20443;-76
2021/10/20 06:50:34;;;;;;;;;;;;;;;9.44;83.82;96493.81;5076280;28;19963;-76
2021/10/20 06:53:00;;;;;;;;;;;;;;;9.73;82.99;96494.28;5075851;28;19986;-76
2021/10/20 06:55:27;;;;;;;;;;;;;;;9.96;81.54;96484.03;5075922;28;20411;-76
2021/10/20 06:57:53;;;;;;;;;;;;;;;10.24;81.34;96482.81;5075981;28;19957;-76
2021/10/20 07:00:19;;;;;;;;;;;;;;;10.49;80.53;96482.81;5075855;28;19975;-76
2021/10/20 07:02:45;;;;;;;;;;;;;;;10.72;79.73;96479.56;5075848;28;19954;-76
2021/10/20 07:05:11;;;;;;;;;;;;;;;10.93;78.64;96474.91;5076370;28;19992;-76
2021/10/20 07:07:37;;;;;;;;;;;;;;;11.02;78.19;96476.22;5075868;28;20325;-76
2021/10/20 07:10:03;;;;;;;;;;;;;;;11.12;75.80;96479.13;5076114;28;19953;-76
2021/10/20 07:12:31;;;;;;;;;;;;;;;11.14;76.97;96482.34;5073917;28;19969;-76
2021/10/20 07:14:58;;;;;;;;;;;;;;;11.11;76.96;96479.38;5075835;28;19952;-76
2021/10/20 07:17:24;;;;;;;;;;;;;;;11.16;75.91;96477.66;5075732;28;20337;-76
2021/10/20 07:19:50;;;;;;;;;;;;;;;11.29;77.23;96486.41;5075621;28;19973;-76
2021/10/20 07:22:16;;;;;;;;;;;;;;;11.27;76.68;96485.81;5075910;28;20374;-76
2021/10/20 07:24:42;;;;;;;;;;;;;;;11.24;76.79;96487.06;5075572;28;19965;-76
2021/10/20 07:27:08;;;;;;;;;;;;;;;11.30;76.87;96480.94;5075517;28;19955;-76
2021/10/20 07:29:34;;;;;;;;;;;;;;;11.41;76.60;96479.38;5075523;28;20052;-76
2021/10/20 07:32:00;;;;;;;;;;;;;;;11.47;75.28;96480.34;5075749;28;19952;-75
2021/10/20 07:34:26;;;;;;;;;;;;;;;11.58;77.22;96483.00;5075420;28;19965;-75
2021/10/20 07:36:52;;;;;;;;;;;;;;;11.68;75.91;96481.66;5075206;28;19962;-77
2021/10/20 07:39:18;;;;;;;;;;;;;;;11.80;75.27;96466.75;5075233;28;19977;-75
2021/10/20 07:41:44;;;;;;;;;;;;;;;11.90;75.89;96471.47;5075286;28;19965;-75
2021/10/20 07:44:10;;;;;;;;;;;;;;;12.01;76.24;96459.38;5075114;28;19976;-76
2021/10/20 07:46:36;;;;;;;;;;;;;;;12.10;75.32;96450.13;5075404;28;19963;-76
2021/10/20 07:49:03;;;;;;;;;;;;;;;12.19;75.05;96448.75;5074929;28;19951;-76
2021/10/20 07:51:29;;;;;;;;;;;;;;;12.25;75.46;96447.06;5075139;28;20345;-76
2021/10/20 07:53:55;;;;;;;;;;;;;;;12.24;75.85;96455.97;5075151;28;19994;-76
2021/10/20 07:56:21;;;;;;;;;;;;;;;12.24;72.62;96442.81;5075547;28;19959;-76
2021/10/20 07:58:47;;;;;;;;;;;;;;;12.30;74.66;96455.84;5074745;28;19960;-76
2021/10/20 08:01:13;;;;;;;;;;;;;;;12.32;73.56;96435.38;5075028;28;20009;-76
2021/10/20 08:03:39;;;;;;;;;;;;;;;12.35;75.20;96442.84;5074863;28;20419;-76
2021/10/20 08:06:05;;;;;;;;;;;;;;;12.39;74.48;96441.34;5074997;28;19968;-76
2021/10/20 08:08:31;;;;;;;;;;;;;;;12.51;74.33;96430.81;5074859;28;20461;-76
2021/10/20 08:10:57;;;;;;;;;;;;;;;12.64;73.78;96423.69;5074832;28;19963;-76
2021/10/20 08:13:23;;;;;;;;;;;;;;;12.71;72.93;96419.94;5074543;28;19957;-76
2021/10/20 08:15:49;;;;;;;;;;;;;;;12.83;73.00;96414.66;5075012;28;19959;-76
2021/10/20 08:18:15;;;;;;;;;;;;;;;12.95;71.89;96410.13;5074513;28;19963;-76
2021/10/20 08:20:41;;;;;;;;;;;;;;;13.08;72.86;96403.81;5074439;28;20342;-75
2021/10/20 08:23:07;;;;;;;;;;;;;;;13.27;73.32;96403.59;5073775;28;19963;-76
2021/10/20 08:25:35;;;;;;;;;;;;;;;13.44;71.64;96399.22;5074890;28;19958;-75
2021/10/20 08:28:04;;;;;;;;;;;;;;;13.64;70.58;96393.50;5074364;28;19963;-76
2021/10/20 08:30:30;;;;;;;;;;;;;;;13.75;70.32;96391.81;5074585;28;19949;-76
2021/10/20 08:32:56;;;;;;;;;;;;;;;13.84;69.43;96377.22;5074279;28;19956;-76
2021/10/20 08:35:22;;;;;;;;;;;;;;;13.92;68.40;96383.91;5074318;28;19973;-76
2021/10/20 08:37:56;;;;;;;;;;;;;;;13.93;69.63;96396.06;5074255;28;19958;-76
2021/10/20 08:40:23;;;;;;;;;;;;;;;13.95;68.95;96397.41;5066882;28;19973;-76
2021/10/20 08:42:49;;;;;;;;;;;;;;;14.01;68.22;96396.47;5073932;28;19955;-76
2021/10/20 08:45:15;;;;;;;;;;;;;;;14.04;66.12;96379.34;5073795;28;19962;-76
2021/10/20 08:47:45;;;;;;;;;;;;;;;14.01;66.50;96379.84;5073889;28;19965;-76
2021/10/20 08:50:13;;;;;;;;;;;;;;;13.98;67.43;96389.03;5073629;28;19954;-76
2021/10/20 08:52:40;;;;;;;;;;;;;;;13.99;65.96;96376.66;5073652;28;19990;-76
2021/10/20 08:55:06;;;;;;;;;;;;;;;14.10;68.16;96385.50;5074259;28;19964;-77
2021/10/20 08:57:32;;;;;;;;;;;;;;;14.31;67.26;96378.69;5073861;28;19958;-76
2021/10/20 09:00:01;;;;;;;;;;;;;;;14.48;66.65;96373.38;5073912;28;19973;-76
2021/10/20 09:02:26;;;;;;;;;;;;;;;14.57;65.60;96371.94;5073593;28;19959;-78
2021/10/20 09:04:53;;;;;;;;;;;;;;;14.63;67.23;96372.78;5073755;28;20395;-76
2021/10/20 09:07:19;;;;;;;;;;;;;;;14.78;66.17;96362.41;5073719;28;19967;-76
2021/10/20 09:09:45;;;;;;;;;;;;;;;14.87;67.02;96362.81;5073635;28;20321;-76
2021/10/20 09:12:11;;;;;;;;;;;;;;;14.93;66.68;96374.97;5074097;28;19999;-76
2021/10/20 09:14:37;;;;;;;;;;;;;;;15.05;64.92;96354.53;5073559;28;19954;-77
2021/10/20 09:17:03;;;;;;;;;;;;;;;15.25;65.43;96345.22;5073712;28;19958;-76
2021/10/20 09:19:34;;;;;;;;;;;;;;;15.36;62.97;96317.84;5073647;28;19976;-76
2021/10/20 09:22:04;;;;;;;;;;;;;;;15.39;63.85;96326.06;5073566;28;19966;-76
2021/10/20 09:24:30;;;;;;;;;;;;;;;15.35;65.14;96342.66;5073811;28;20409;-76
2021/10/20 09:26:57;;;;;;;;;;;;;;;15.36;65.77;96349.56;5073628;28;19953;-77
2021/10/20 09:29:25;;;;;;;;;;;;;;;15.50;65.78;96352.59;5073737;28;19960;-76
2021/10/20 09:31:51;;;;;;;;;;;;;;;15.70;64.74;96333.44;5073328;28;19968;-76
2021/10/20 09:34:17;;;;;;;;;;;;;;;15.89;66.30;96341.81;5072593;28;19959;-74
2021/10/20 09:36:44;;;;;;;;;;;;;;;16.06;64.16;96323.94;5073452;28;19965;-75
2021/10/20 09:39:10;;;;;;;;;;;;;;;16.20;62.05;96295.19;5073390;28;20325;-74
2021/10/20 09:41:36;;;;;;;;;;;;;;;16.35;61.90;96287.31;5073343;28;19959;-74
2021/10/20 09:44:02;;;;;;;;;;;;;;;16.48;62.91;96287.88;5073383;28;20081;-75
2021/10/20 09:46:32;;;;;;;;;;;;;;;16.58;59.73;96256.16;5073328;28;19972;-74
2021/10/20 09:49:03;;;;;;;;;;;;;;;16.68;63.45;96280.00;5059463;28;19960;-75
2021/10/20 09:51:36;;;;;;;;;;;;;;;16.80;60.58;96270.03;5073509;28;19968;-74
2021/10/20 09:54:02;;;;;;;;;;;;;;;16.94;60.08;96267.66;5072169;28;19989;-74
2021/10/20 09:56:32;;;;;;;;;;;;;;;17.03;57.85;96244.09;5073223;28;19959;-75
2021/10/20 09:58:58;;;;;;;;;;;;;;;17.11;57.27;96232.97;5073101;28;19964;-75
2021/10/20 10:01:26;;;;;;;;;;;;;;;17.20;58.11;96220.00;5073434;28;19963;-75
2021/10/20 10:03:53;;;;;;;;;;;;;;;17.28;59.46;96237.19;5072941;28;19954;-74
2021/10/20 10:06:19;;;;;;;;;;;;;;;17.30;58.05;96224.47;5072980;28;19970;-74
2021/10/20 10:08:45;;;;;;;;;;;;;;;17.32;59.47;96225.00;5073345;28;19955;-74
2021/10/20 10:11:12;;;;;;;;;;;;;;;17.35;57.69;96229.78;5072897;28;19994;-75
2021/10/20 10:13:49;;;;;;;;;;;;;;;17.39;55.95;96207.00;5073053;28;19952;-75
2021/10/20 10:16:19;;;;;;;;;;;;;;;17.45;56.22;96229.78;5072960;28;19955;-75
2021/10/20 10:18:45;;;;;;;;;;;;;;;17.58;58.37;96242.50;5073148;28;19956;-74
2021/10/20 10:21:35;;;;;;;;;;;;;;;17.67;57.46;96223.38;5072949;28;19971;-75
2021/10/20 10:24:08;;;;;;;;;;;;;;;17.75;55.52;96217.53;5070087;28;20311;-75
2021/10/20 10:26:35;;;;;;;;;;;;;;;17.78;57.20;96235.56;5072963;28;19955;-75
2021/10/20 10:29:08;;;;;;;;;;;;;;;17.80;53.50;96191.00;5073161;28;20345;-75
2021/10/20 10:31:35;;;;;;;;;;;;;;;17.79;55.66;96210.63;5072857;28;19964;-74
2021/10/20 10:34:01;;;;;;;;;;;;;;;17.80;57.54;96241.38;5072879;28;20442;-75
2021/10/20 10:36:27;;;;;;;;;;;;;;;17.78;57.62;96224.94;5072654;28;19964;-74
2021/10/20 10:39:11;;;;;;;;;;;;;;;17.84;56.40;96215.94;5072825;28;19968;-74
2021/10/20 10:41:40;;;;;;;;;;;;;;;17.97;56.78;96219.88;5072758;28;19977;-75
2021/10/20 10:44:11;;;;;;;;;;;;;;;18.23;56.09;96220.59;5071898;28;19965;-75
2021/10/20 10:46:38;;;;;;;;;;;;;;;18.49;53.66;96193.91;5075018;28;19963;-75
2021/10/20 10:49:04;;;;;;;;;;;;;;;18.66;53.87;96195.13;5076285;28;19958;-75
2021/10/20 10:51:30;;;;;;;;;;;;;;;18.82;55.04;96213.66;5076637;28;19966;-74
2021/10/20 10:54:02;;;;;;;;;;;;;;;18.96;55.21;96214.63;5076198;28;19983;-74
2021/10/20 10:56:28;;;;;;;;;;;;;;;19.13;53.79;96194.81;5076425;28;19968;-74
2021/10/20 10:58:54;;;;;;;;;;;;;;;19.31;53.85;96191.47;5076110;28;19964;-74
2021/10/20 11:01:36;;;;;;;;;;;;;;;19.41;51.65;96169.34;5076166;28;19964;-75
2021/10/20 11:04:23;;;;;;;;;;;;;;;19.40;53.02;96192.47;5076044;28;19965;-74
2021/10/20 11:06:57;;;;;;;;;;;;;;;19.32;53.22;96181.63;5075527;28;19958;-75
2021/10/20 11:09:32;;;;;;;;;;;;;;;19.27;53.69;96195.78;5075960;28;19967;-74
2021/10/20 11:11:58;;;;;;;;;;;;;;;19.23;52.16;96174.28;5076135;28;19958;-74
2021/10/20 11:14:25;;;;;;;;;;;;;;;19.23;50.63;96161.00;5075660;28;19969;-74
2021/10/20 11:16:57;;;;;;;;;;;;;;;19.36;53.47;96178.16;5075990;28;20024;-74
2021/10/20 11:19:24;;;;;;;;;;;;;;;19.46;52.04;96163.94;5075369;28;19962;-74
2021/10/20 11:21:50;;;;;;;;;;;;;;;19.61;51.47;96158.50;5075690;28;19975;-74
2021/10/20 11:24:17;;;;;;;;;;;;;;;19.78;51.47;96159.91;5075481;28;19951;-75
2021/10/20 11:26:50;;;;;;;;;;;;;;;19.94;51.54;96156.00;5075686;28;19961;-75
2021/10/20 11:29:16;;;;;;;;;;;;;;;20.12;51.49;96170.44;5075423;28;19962;-74
2021/10/20 11:31:49;;;;;;;;;;;;;;;20.33;52.11;96173.63;5075884;28;19958;-75
2021/10/20 11:34:19;;;;;;;;;;;;;;;20.58;50.64;96164.53;5075397;28;19963;-74
2021/10/20 11:36:45;;;;;;;;;;;;;;;20.76;51.03;96173.56;5075279;28;20343;-74
2021/10/20 11:39:12;;;;;;;;;;;;;;;20.93;48.20;96185.59;5075469;28;19958;-75
2021/10/20 11:41:47;;;;;;;;;;;;;;;21.05;50.46;96196.59;5074044;28;19985;-75
2021/10/20 11:44:13;;;;;;;;;;;;;;;21.09;46.45;96165.59;5075714;28;19964;-75
2021/10/20 11:46:43;;;;;;;;;;;;;;;21.05;47.88;96175.25;5075151;28;19955;-75
2021/10/20 11:49:09;;;;;;;;;;;;;;;21.02;48.88;96165.16;5075244;28;19962;-75
2021/10/20 11:51:35;;;;;;;;;;;;;;;21.04;48.85;96168.34;5074988;28;19959;-74
2021/10/20 11:54:05;;;;;;;;;;;;;;;21.06;48.31;96164.31;5073453;28;20045;-74
2021/10/20 11:56:31;;;;;;;;;;;;;;;21.05;48.76;96168.06;5073733;28;19966;-74
2021/10/20 11:58:57;;;;;;;;;;;;;;;21.02;50.39;96157.16;5074308;28;19959;-75
2021/10/20 12:01:23;;;;;;;;;;;;;;;20.95;49.18;96148.78;5074784;28;20038;-75
2021/10/20 12:03:49;;;;;;;;;;;;;;;20.79;47.95;96133.03;5074979;28;20046;-75
2021/10/20 12:06:18;;;;;;;;;;;;;;;20.71;48.59;96135.56;5074795;28;19978;-76
2021/10/20 12:08:45;;;;;;;;;;;;;;;20.69;50.15;96146.50;5074541;28;19954;-75
2021/10/20 12:11:15;;;;;;;;;;;;;;;20.73;49.28;96138.75;5074613;28;19957;-75
2021/10/20 12:13:41;;;;;;;;;;;;;;;20.82;50.16;96135.09;5074625;28;19959;-75
2021/10/20 12:16:08;;;;;;;;;;;;;;;20.89;48.13;96132.06;5073593;28;19956;-75
2021/10/20 12:18:37;;;;;;;;;;;;;;;20.91;48.73;96129.09;5074467;28;19958;-75
2021/10/20 12:21:03;;;;;;;;;;;;;;;20.93;48.33;96126.94;5074227;28;20459;-75
2021/10/20 12:23:33;;;;;;;;;;;;;;;20.99;47.99;96113.22;5074760;28;19957;-76
2021/10/20 12:26:02;;;;;;;;;;;;;;;20.98;47.52;96114.34;5074714;28;19950;-75
2021/10/20 12:28:29;;;;;;;;;;;;;;;20.91;49.53;96135.22;5074302;28;19970;-75
2021/10/20 12:30:55;;;;;;;;;;;;;;;20.83;49.30;96130.56;5074243;28;20329;-75
2021/10/20 12:33:22;;;;;;;;;;;;;;;20.76;49.52;96133.59;5074155;28;20294;-75
2021/10/20 12:35:49;;;;;;;;;;;;;;;20.67;50.29;96133.47;5074604;28;20409;-75
2021/10/20 12:38:16;;;;;;;;;;;;;;;20.58;50.27;96129.88;5074186;28;19964;-75
2021/10/20 12:40:43;;;;;;;;;;;;;;;20.44;48.85;96123.69;5073978;28;19965;-75
2021/10/20 12:43:11;;;;;;;;;;;;;;;20.27;49.37;96127.63;5074395;28;19952;-75
2021/10/20 12:45:37;;;;;;;;;;;;;;;20.10;49.51;96127.34;5073750;28;19963;-75
2021/10/20 12:48:07;;;;;;;;;;;;;;;19.95;51.03;96140.81;5074065;28;19958;-75
2021/10/20 12:50:36;;;;;;;;;;;;;;;19.80;50.49;96131.97;5057997;28;19964;-75